createdAt,value
2023-04-11T00:00:00.488Z,6.4
2023-04-11T00:05:00.664Z,6.3
2023-04-11T00:10:00.483Z,6.4
2023-04-11T00:15:00.498Z,6.4
2023-04-11T00:20:00.488Z,6.3
2023-04-11T00:25:00.489Z,6.2
2023-04-11T00:30:00.479Z,6.1
2023-04-11T00:35:00.485Z,6
2023-04-11T00:40:00.509Z,5.9
2023-04-11T00:45:00.518Z,6
2023-04-11T00:50:00.479Z,6
2023-04-11T01:00:00.503Z,6
2023-04-11T01:05:00.474Z,6
2023-04-11T01:10:00.479Z,6
2023-04-11T01:15:00.501Z,5.9
2023-04-11T01:20:00.500Z,5.9
2023-04-11T01:30:00.542Z,5.9
2023-04-11T01:35:00.501Z,5.8
2023-04-11T01:40:00.485Z,5.9
2023-04-11T01:45:00.482Z,5.8
2023-04-11T01:50:00.489Z,5.9
2023-04-11T01:55:00.484Z,5.9
2023-04-11T02:00:00.476Z,5.9
2023-04-11T02:05:00.489Z,5.9
2023-04-11T02:10:00.831Z,6
2023-04-11T02:15:00.529Z,5.9
2023-04-11T02:20:00.540Z,5.9
2023-04-11T02:25:00.573Z,6
2023-04-11T02:35:00.490Z,6.1
2023-04-11T02:40:00.467Z,6.1
2023-04-11T02:45:00.489Z,6
2023-04-11T02:50:00.900Z,6.1
2023-04-11T02:55:00.541Z,6.1
2023-04-11T03:00:00.492Z,6.2
2023-04-11T03:05:00.482Z,6.3
2023-04-11T03:10:00.486Z,6.4
2023-04-11T03:15:00.480Z,6.5
2023-04-11T03:20:00.514Z,6.5
2023-04-11T03:25:00.526Z,6.6
2023-04-11T03:30:00.483Z,6.5
2023-04-11T03:35:00.583Z,6.7
2023-04-11T03:40:00.824Z,6.9
2023-04-11T04:00:00.482Z,7
2023-04-11T04:05:00.518Z,7
2023-04-11T04:10:00.487Z,7.2
2023-04-11T04:15:00.485Z,7.3
2023-04-11T04:20:00.509Z,7.3
2023-04-11T04:30:01.854Z,7.4
2023-04-11T04:35:00.482Z,7.4
2023-04-11T04:40:00.491Z,7.6
2023-04-11T04:45:00.504Z,7.6
2023-04-11T04:50:00.474Z,7.7
2023-04-11T04:55:00.702Z,7.7
2023-04-11T05:00:00.489Z,7.8
2023-04-11T05:05:00.943Z,7.8
2023-04-11T05:10:00.821Z,7.8
2023-04-11T05:15:00.826Z,7.8
2023-04-11T05:20:00.840Z,7.8
2023-04-11T05:25:00.857Z,7.8
2023-04-11T05:30:00.804Z,7.7
2023-04-11T05:35:00.843Z,7.7
2023-04-11T05:40:00.834Z,7.7
2023-04-11T05:45:00.777Z,7.7
2023-04-11T05:50:00.887Z,7.7
2023-04-11T05:55:00.901Z,7.7
2023-04-11T06:00:01.014Z,7.7
2023-04-11T06:05:00.836Z,7.7
2023-04-11T06:10:00.858Z,7.7
2023-04-11T06:15:00.857Z,7.8
2023-04-11T06:25:00.873Z,7.8
2023-04-11T06:30:00.820Z,7.8
2023-04-11T06:35:00.815Z,7.8
2023-04-11T06:40:00.758Z,7.8
2023-04-11T06:45:00.888Z,7.8
2023-04-11T06:50:00.783Z,7.7
2023-04-11T06:55:00.813Z,7.7
2023-04-11T07:00:00.908Z,7.8
2023-04-11T07:10:00.941Z,7.8
2023-04-11T07:15:00.898Z,7.7
2023-04-11T07:20:00.825Z,7.7
2023-04-11T07:25:00.879Z,7.7
2023-04-11T07:30:00.914Z,7.7
2023-04-11T07:35:00.845Z,7.7
2023-04-11T07:40:00.797Z,7.7
2023-04-11T07:45:00.933Z,7.6
2023-04-11T07:50:00.875Z,7.6
2023-04-11T07:55:00.938Z,7.6
2023-04-11T08:00:00.888Z,7.6
2023-04-11T08:05:01.031Z,7.6
2023-04-11T08:10:00.940Z,7.6
2023-04-11T08:15:00.852Z,7.6
2023-04-11T08:20:02.120Z,7.6
2023-04-11T08:25:00.872Z,7.6
2023-04-11T08:30:00.921Z,7.6
2023-04-11T08:35:00.770Z,7.6
2023-04-11T08:40:00.798Z,7.6
2023-04-11T08:45:00.854Z,7.5
2023-04-11T08:50:00.848Z,7.4
2023-04-11T08:55:00.828Z,7.4
2023-04-11T09:00:00.864Z,7.3
2023-04-11T09:05:00.877Z,7.4
2023-04-11T09:15:00.806Z,7.4
2023-04-11T09:20:00.794Z,7.6
2023-04-11T09:30:00.914Z,7.4
2023-04-11T09:40:00.820Z,7.3
2023-04-11T09:45:00.981Z,7.3
2023-04-11T09:50:00.910Z,7.1
2023-04-11T09:55:00.853Z,7.2
2023-04-11T10:00:00.934Z,7
2023-04-11T10:10:00.797Z,7
2023-04-11T10:15:00.924Z,6.8
2023-04-11T10:20:00.897Z,7
2023-04-11T10:25:00.909Z,6.8
2023-04-11T10:30:00.862Z,6.6
2023-04-11T10:35:00.833Z,6.8
2023-04-11T10:40:00.883Z,6.6
2023-04-11T10:45:00.930Z,6.4
2023-04-11T10:50:00.871Z,6.4
2023-04-11T10:55:00.892Z,6.5
2023-04-11T11:00:00.844Z,6.5
2023-04-11T11:05:00.988Z,6.5
2023-04-11T11:10:00.940Z,6.4
2023-04-11T11:15:00.896Z,6.3
2023-04-11T11:20:00.798Z,6.3
2023-04-11T11:25:00.841Z,6.3
2023-04-11T11:30:00.865Z,6.3
2023-04-11T11:35:00.888Z,6.3
2023-04-11T11:40:00.849Z,6.3
2023-04-11T11:45:00.985Z,6.2
2023-04-11T11:50:00.937Z,6.2
2023-04-11T12:00:00.822Z,6.2
2023-04-11T12:05:00.985Z,6
2023-04-11T12:10:00.859Z,6.1
2023-04-11T12:15:00.863Z,6.2
2023-04-11T12:20:00.813Z,6.1
2023-04-11T12:25:00.904Z,6
2023-04-11T12:30:00.837Z,6.1
2023-04-11T12:35:00.941Z,6.1
2023-04-11T12:40:00.885Z,6.1
2023-04-11T12:45:00.869Z,6.1
2023-04-11T12:50:00.848Z,6.1
2023-04-11T12:55:00.900Z,6.1
2023-04-11T13:00:00.874Z,6.1
2023-04-11T13:05:01.274Z,6.2
2023-04-11T13:10:00.890Z,6.2
2023-04-11T13:15:00.835Z,6.3
2023-04-11T13:20:00.830Z,6.5
2023-04-11T13:25:00.839Z,6.4
2023-04-11T13:30:00.988Z,6.3
2023-04-11T13:35:00.971Z,6.1
2023-04-11T13:40:00.829Z,6.5
2023-04-11T13:45:00.844Z,6.6
2023-04-11T13:50:00.943Z,6.5
2023-04-11T13:55:00.853Z,6.7
2023-04-11T14:00:00.902Z,6.7
2023-04-11T14:05:01.013Z,6.6
2023-04-11T14:10:01.001Z,6.4
2023-04-11T14:15:01.020Z,6.4
2023-04-11T14:20:00.916Z,6.5
2023-04-11T14:25:00.952Z,6.4
2023-04-11T14:30:00.996Z,6.3
2023-04-11T14:35:02.114Z,6.5
2023-04-11T14:40:00.871Z,6.2
2023-04-11T14:45:00.845Z,6.4
2023-04-11T14:50:01.032Z,6.5
2023-04-11T14:55:00.826Z,6.5
2023-04-11T15:00:00.945Z,6.4
2023-04-11T15:05:00.825Z,6.2
2023-04-11T15:10:00.803Z,6
2023-04-11T15:15:00.935Z,6
2023-04-11T15:25:00.849Z,6.3
2023-04-11T15:30:00.832Z,6.5
2023-04-11T15:35:00.764Z,6.6
2023-04-11T15:40:00.815Z,6.7
2023-04-11T15:45:00.873Z,6.7
2023-04-11T15:50:00.879Z,6.7
2023-04-11T15:55:00.851Z,6.7
2023-04-11T16:00:00.782Z,6.6
2023-04-11T16:05:01.194Z,6.6
2023-04-11T16:10:00.944Z,6.6
2023-04-11T16:15:00.831Z,6.5
2023-04-11T16:20:00.875Z,6.7
2023-04-11T16:25:00.846Z,6.8
2023-04-11T16:30:00.831Z,6.8
2023-04-11T16:35:00.822Z,6.7
2023-04-11T16:40:00.841Z,6.8
2023-04-11T16:45:00.787Z,6.7
2023-04-11T16:50:00.785Z,6.7
2023-04-11T16:55:00.811Z,6.7
2023-04-11T17:00:00.991Z,6.6
2023-04-11T17:05:00.843Z,6.7
2023-04-11T17:10:00.961Z,6.6
2023-04-11T17:15:00.849Z,6.7
2023-04-11T17:20:01.035Z,6.6
2023-04-11T17:25:01.123Z,6.7
2023-04-11T17:30:00.893Z,6.6
2023-04-11T17:35:00.883Z,6.6
2023-04-11T17:45:06.789Z,6.6
2023-04-11T17:50:00.863Z,6.6
2023-04-11T17:55:00.841Z,6.6
2023-04-11T18:00:01.069Z,6.5
2023-04-11T18:05:02.292Z,6.5
2023-04-11T18:10:00.873Z,6.5
2023-04-11T18:15:00.971Z,6.4
2023-04-11T18:20:00.927Z,6.4
2023-04-11T18:25:01.022Z,6.4
2023-04-11T18:30:01.033Z,6.4
2023-04-11T18:35:00.887Z,6.4
2023-04-11T18:40:00.838Z,6.4
2023-04-11T18:45:00.833Z,6.5
2023-04-11T18:50:00.997Z,6.5
2023-04-11T18:55:00.974Z,6.5
2023-04-11T19:00:02.891Z,6.4
2023-04-11T19:05:01.083Z,6.4
2023-04-11T19:10:00.898Z,6.5
2023-04-11T19:15:00.868Z,6.4
2023-04-11T19:20:01.022Z,6.4
2023-04-11T19:25:00.985Z,6.4
2023-04-11T19:30:00.893Z,6.4
2023-04-11T19:35:00.941Z,6.4
2023-04-11T19:40:01.007Z,6.4
2023-04-11T19:45:00.903Z,6.4
2023-04-11T19:50:01.381Z,6.4
2023-04-11T19:55:00.996Z,6.4
2023-04-11T20:00:00.879Z,6.5
2023-04-11T20:05:00.952Z,6.5
2023-04-11T20:10:00.986Z,6.5
2023-04-11T20:15:00.837Z,6.5
2023-04-11T20:20:00.964Z,6.6
2023-04-11T20:25:00.929Z,6.6
2023-04-11T20:30:00.968Z,6.6
2023-04-11T20:35:00.948Z,6.6
2023-04-11T20:40:00.922Z,6.6
2023-04-11T20:45:00.953Z,6.7
2023-04-11T20:50:00.922Z,6.6
2023-04-11T20:55:00.803Z,6.7
2023-04-11T21:00:00.908Z,6.7
2023-04-11T21:10:00.934Z,6.8
2023-04-11T21:15:00.866Z,6.8
2023-04-11T21:20:00.953Z,6.8
2023-04-11T21:25:00.921Z,6.8
2023-04-11T21:30:00.888Z,6.8
2023-04-11T21:35:00.947Z,6.8
2023-04-11T21:40:00.771Z,6.8
2023-04-11T21:45:00.804Z,6.8
2023-04-11T21:50:00.911Z,6.8
2023-04-11T21:55:00.980Z,6.9
2023-04-11T22:00:00.953Z,6.9
2023-04-11T22:05:05.476Z,6.9
2023-04-11T22:10:00.868Z,6.9
2023-04-11T22:20:00.923Z,6.9
2023-04-11T22:25:00.939Z,6.9
2023-04-11T22:30:00.871Z,6.9
2023-04-11T22:35:00.880Z,6.9
2023-04-11T22:40:00.825Z,6.9
2023-04-11T22:45:00.929Z,6.9
2023-04-11T22:50:00.867Z,6.9
2023-04-11T22:55:00.982Z,6.9
2023-04-11T23:00:00.897Z,6.9
2023-04-11T23:05:00.971Z,6.9
2023-04-11T23:10:01.011Z,6.9
2023-04-11T23:15:01.018Z,6.9
2023-04-11T23:20:01.041Z,6.9
2023-04-11T23:25:00.829Z,6.8
2023-04-11T23:30:00.967Z,6.8
2023-04-11T23:35:00.965Z,6.8
2023-04-11T23:40:00.922Z,6.9
2023-04-11T23:45:00.794Z,6.9
2023-04-11T23:50:00.848Z,6.9
2023-04-11T23:55:00.842Z,6.9
